Time;durP1;ratioP1;P1;durP2;ratioP2;P2;SDS_P1;SDS_P2;PMS_P1;PMS_P2;Temp;Humidity;BMP_temperature;BMP_pressure;BME280_temperature;BME280_humidity;BME280_pressure;Samples;Min_cycle;Max_cycle;Signal;HPM_P1;HPM_P2
2021/01/04 00:01:24;;;;;;;8.37;5.30;;;4.00;92.80;;;;;;5012121;28;20046;-74
2021/01/04 00:04:00;;;;;;;9.87;5.37;;;4.00;92.80;;;;;;5003561;28;20030;-74
2021/01/04 00:06:36;;;;;;;11.93;6.40;;;4.00;92.80;;;;;;5021734;28;20048;-74
2021/01/04 00:09:24;;;;;;;10.07;6.13;;;4.00;92.80;;;;;;5010087;28;20057;-74
2021/01/04 00:12:17;;;;;;;10.03;5.47;;;4.00;92.90;;;;;;5010450;28;20049;-73
2021/01/04 00:15:12;;;;;;;11.70;6.63;;;4.00;92.80;;;;;;5010309;28;20783;-74
2021/01/04 00:17:52;;;;;;;14.00;6.13;;;4.00;92.80;;;;;;5009786;28;20045;-73
2021/01/04 00:20:47;;;;;;;10.03;6.00;;;4.00;92.80;;;;;;5010289;28;20133;-73
2021/01/04 00:23:44;;;;;;;12.07;6.10;;;4.00;92.80;;;;;;5022767;28;20096;-74
2021/01/04 00:26:41;;;;;;;13.73;7.43;;;4.00;92.80;;;;;;5010190;28;20075;-74
2021/01/04 00:29:08;;;;;;;13.50;7.03;;;4.00;92.80;;;;;;5010354;28;20038;-74
2021/01/04 00:31:39;;;;;;;12.57;6.60;;;4.00;92.80;;;;;;4990976;28;20379;-74
2021/01/04 00:34:17;;;;;;;11.30;6.10;;;4.00;92.80;;;;;;5002776;28;20494;-74
2021/01/04 00:37:02;;;;;;;11.50;5.87;;;4.00;92.80;;;;;;5014140;28;20422;-74
2021/01/04 00:39:50;;;;;;;11.47;6.13;;;4.10;92.80;;;;;;5015613;28;20494;-74
2021/01/04 00:42:35;;;;;;;11.33;6.20;;;4.00;92.80;;;;;;5009853;28;20410;-74
2021/01/04 00:45:08;;;;;;;11.40;5.77;;;4.10;92.90;;;;;;5014472;28;20045;-75
2021/01/04 00:47:41;;;;;;;9.93;5.73;;;4.10;92.90;;;;;;5014520;28;20042;-74
2021/01/04 00:50:21;;;;;;;11.07;6.13;;;4.10;92.90;;;;;;5014515;28;20042;-74
2021/01/04 00:53:01;;;;;;;13.73;7.20;;;4.10;92.90;;;;;;5018893;28;20050;-74
2021/01/04 00:55:56;;;;;;;12.03;7.30;;;4.10;92.90;;;;;;5016328;28;20571;-74
2021/01/04 00:58:50;;;;;;;11.17;6.00;;;4.10;92.90;;;;;;5015808;28;20034;-80
2021/01/04 01:01:29;;;;;;;12.60;7.07;;;4.10;92.90;;;;;;4995390;28;20061;-80
2021/01/04 01:04:11;;;;;;;12.73;6.27;;;4.10;92.80;;;;;;5015252;28;20045;-79
2021/01/04 01:07:03;;;;;;;11.23;6.43;;;4.00;92.90;;;;;;5016220;28;20042;-79
2021/01/04 01:09:33;;;;;;;11.43;5.93;;;4.10;92.90;;;;;;5009458;28;20464;-79
2021/01/04 01:12:05;;;;;;;12.27;6.17;;;4.00;92.90;;;;;;5015044;28;20034;-80
2021/01/04 01:14:50;;;;;;;12.27;6.13;;;4.10;92.90;;;;;;5013883;28;20050;-79
2021/01/04 01:17:49;;;;;;;10.27;6.20;;;4.00;92.90;;;;;;5015268;28;20049;-80
2021/01/04 01:20:18;;;;;;;11.50;5.90;;;4.10;92.90;;;;;;5015306;28;20045;-80
2021/01/04 01:22:45;;;;;;;10.23;5.70;;;4.00;92.90;;;;;;5015103;28;20042;-80
2021/01/04 01:25:39;;;;;;;9.70;5.70;;;4.10;92.90;;;;;;5015433;28;20076;-80
2021/01/04 01:28:23;;;;;;;;;;;4.00;92.90;;;;;;5004398;28;20038;-80
2021/01/04 01:31:18;;;;;;;12.50;6.40;;;4.00;92.90;;;;;;5014569;28;20044;-80
2021/01/04 01:33:53;;;;;;;9.37;5.40;;;4.00;92.90;;;;;;5016295;28;20449;-80
2021/01/04 01:37:05;;;;;;;9.20;5.37;;;4.00;92.90;;;;;;5014903;28;20049;-80
2021/01/04 01:39:47;;;;;;;10.60;5.70;;;4.00;92.90;;;;;;5004484;28;20046;-80
2021/01/04 01:42:42;;;;;;;11.27;6.13;;;4.00;92.90;;;;;;5014599;28;20061;-79
2021/01/04 01:45:41;;;;;;;9.37;5.40;;;4.00;92.90;;;;;;5009535;28;20046;-80
2021/01/04 01:48:27;;;;;;;10.40;5.57;;;4.00;92.90;;;;;;5014080;28;20053;-80
2021/01/04 01:51:15;;;;;;;10.83;6.10;;;4.00;93.00;;;;;;5014724;28;20042;-80
2021/01/04 01:54:09;;;;;;;9.50;4.97;;;4.00;92.90;;;;;;5004228;28;20066;-79
2021/01/04 01:56:57;;;;;;;11.10;6.03;;;4.00;92.90;;;;;;5014494;28;20482;-80
2021/01/04 01:59:31;;;;;;;9.90;5.60;;;4.00;93.00;;;;;;5014665;28;20449;-81
2021/01/04 02:02:17;;;;;;;9.33;5.60;;;3.90;93.00;;;;;;5002237;28;20030;-80
2021/01/04 02:05:10;;;;;;;9.43;5.60;;;4.00;93.00;;;;;;5014257;28;20088;-81
2021/01/04 02:08:02;;;;;;;8.93;4.97;;;4.00;93.00;;;;;;4999873;28;20156;-80
2021/01/04 02:10:52;;;;;;;9.00;5.07;;;4.00;93.00;;;;;;5000985;28;20034;-80
2021/01/04 02:13:18;;;;;;;10.43;6.03;;;4.00;93.00;;;;;;5014192;28;20042;-80
2021/01/04 02:15:48;;;;;;;9.93;5.27;;;4.00;93.10;;;;;;5010981;28;20092;-81
2021/01/04 02:18:44;;;;;;;9.17;5.20;;;3.90;93.00;;;;;;5009431;28;20053;-80
2021/01/04 02:21:48;;;;;;;9.50;5.93;;;3.90;93.00;;;;;;5002275;28;20088;-80
2021/01/04 02:24:23;;;;;;;8.50;4.97;;;3.90;93.00;;;;;;5014190;28;20100;-80
2021/01/04 02:27:04;;;;;;;8.30;5.33;;;3.90;93.10;;;;;;5013947;28;20104;-80
2021/01/04 02:29:31;;;;;;;8.33;4.90;;;3.90;93.10;;;;;;5013800;28;20053;-80
2021/01/04 02:32:02;;;;;;;9.47;4.43;;;3.90;93.20;;;;;;5015076;28;20042;-80
2021/01/04 02:34:36;;;;;;;8.47;4.50;;;3.90;93.10;;;;;;4985793;28;20405;-80
2021/01/04 02:37:04;;;;;;;8.70;4.70;;;3.90;93.20;;;;;;5013552;28;20050;-79
2021/01/04 02:40:03;;;;;;;8.40;4.47;;;3.90;93.20;;;;;;5014531;28;20088;-79
2021/01/04 02:42:31;;;;;;;6.83;4.13;;;3.90;93.20;;;;;;5014443;28;20065;-79
2021/01/04 02:45:01;;;;;;;8.17;4.37;;;3.80;93.20;;;;;;5001622;28;20371;-79
2021/01/04 02:47:44;;;;;;;6.07;3.87;;;3.80;93.20;;;;;;5014872;28;20061;-80
2021/01/04 02:50:29;;;;;;;6.33;3.57;;;3.90;93.20;;;;;;5005501;28;20038;-80
2021/01/04 02:53:26;;;;;;;6.83;4.07;;;3.90;93.20;;;;;;5013434;28;20073;-80
2021/01/04 02:56:05;;;;;;;7.83;4.37;;;3.80;93.20;;;;;;5013232;28;20045;-80
2021/01/04 02:59:15;;;;;;;7.53;3.85;;;3.80;93.20;;;;;;5000185;28;20034;-80
2021/01/04 03:01:53;;;;;;;8.00;4.33;;;3.80;93.20;;;;;;5014429;28;20037;-80
2021/01/04 03:04:22;;;;;;;8.37;4.30;;;3.70;93.20;;;;;;5014781;28;20402;-80
2021/01/04 03:07:17;;;;;;;7.33;4.53;;;3.70;93.20;;;;;;4997105;28;20100;-80
2021/01/04 03:09:52;;;;;;;8.60;4.50;;;3.70;93.30;;;;;;5014268;28;20053;-79
2021/01/04 03:12:25;;;;;;;7.90;4.60;;;3.70;93.30;;;;;;5013136;28;20057;-80
2021/01/04 03:15:16;;;;;;;8.27;4.60;;;3.70;93.30;;;;;;5011805;28;20042;-79
2021/01/04 03:18:04;;;;;;;5.40;3.70;;;3.70;93.30;;;;;;5023863;28;20069;-80
2021/01/04 03:20:31;;;;;;;5.67;3.67;;;3.70;93.30;;;;;;5005302;28;20069;-80
2021/01/04 03:22:58;;;;;;;6.77;3.60;;;3.70;93.30;;;;;;5033951;28;20041;-79
2021/01/04 03:25:37;;;;;;;7.57;4.73;;;3.70;93.30;;;;;;5032816;28;20053;-80
2021/01/04 03:28:08;;;;;;;7.17;4.50;;;3.70;93.30;;;;;;5016243;28;20136;-80
2021/01/04 03:30:34;;;;;;;6.47;4.13;;;3.70;93.40;;;;;;5032818;28;20064;-80
2021/01/04 03:33:01;;;;;;;7.27;3.90;;;3.70;93.40;;;;;;5014822;28;20485;-80
2021/01/04 03:35:27;;;;;;;8.60;4.87;;;3.70;93.40;;;;;;5003679;28;20421;-80
2021/01/04 03:37:54;;;;;;;8.60;5.67;;;3.70;93.40;;;;;;5012040;28;20397;-80
2021/01/04 03:40:21;;;;;;;7.53;5.07;;;3.70;93.30;;;;;;5024246;28;20203;-80
2021/01/04 03:42:47;;;;;;;7.00;4.00;;;3.70;93.30;;;;;;5012034;28;20553;-80
2021/01/04 03:45:15;;;;;;;7.40;4.00;;;3.70;93.40;;;;;;4998140;28;20091;-80
2021/01/04 03:47:41;;;;;;;5.50;3.43;;;3.70;93.40;;;;;;5032614;28;20043;-80
2021/01/04 03:50:10;;;;;;;6.07;3.93;;;3.70;93.40;;;;;;5023639;28;20041;-80
2021/01/04 03:52:37;;;;;;;6.80;4.10;;;3.70;93.30;;;;;;5032425;28;20076;-78
2021/01/04 03:55:04;;;;;;;6.10;3.63;;;3.70;93.30;;;;;;4999485;28;20075;-80
2021/01/04 03:57:31;;;;;;;5.47;3.10;;;3.70;93.30;;;;;;5015797;28;20502;-80
2021/01/04 03:59:57;;;;;;;6.47;3.70;;;3.70;93.30;;;;;;5015635;28;20095;-81
2021/01/04 04:02:23;;;;;;;5.47;3.57;;;3.70;93.30;;;;;;5015871;28;20041;-80
2021/01/04 04:04:50;;;;;;;6.07;3.77;;;3.70;93.40;;;;;;5019284;28;20056;-80
2021/01/04 04:07:16;;;;;;;5.73;3.23;;;3.70;93.40;;;;;;5030817;28;20033;-80
2021/01/04 04:09:46;;;;;;;7.20;3.80;;;3.70;93.40;;;;;;5015492;28;20408;-81
2021/01/04 04:12:13;;;;;;;7.07;3.83;;;3.70;93.40;;;;;;4998009;28;20042;-80
2021/01/04 04:14:40;;;;;;;6.03;3.57;;;3.70;93.40;;;;;;5011968;28;20050;-80
2021/01/04 04:17:07;;;;;;;7.00;3.50;;;3.70;93.40;;;;;;5011630;28;20056;-80
2021/01/04 04:19:33;;;;;;;5.53;3.30;;;3.70;93.40;;;;;;5023529;28;20096;-80
2021/01/04 04:22:00;;;;;;;5.33;3.17;;;3.70;93.50;;;;;;5009979;28;20033;-80
2021/01/04 04:24:26;;;;;;;6.07;2.50;;;3.70;93.50;;;;;;4996428;28;20177;-80
2021/01/04 04:26:53;;;;;;;5.47;3.20;;;3.70;93.50;;;;;;5023304;28;20037;-80
2021/01/04 04:29:19;;;;;;;5.77;2.87;;;3.70;93.40;;;;;;5011311;28;20053;-80
2021/01/04 04:31:48;;;;;;;5.10;2.73;;;3.70;93.40;;;;;;5022787;28;20520;-80
2021/01/04 04:34:15;;;;;;;5.90;2.47;;;3.70;93.40;;;;;;5032918;28;20045;-80
2021/01/04 04:36:43;;;;;;;5.43;2.60;;;3.70;93.50;;;;;;5024100;28;20033;-80
2021/01/04 04:39:13;;;;;;;5.40;2.47;;;3.70;93.50;;;;;;5018915;28;20478;-80
2021/01/04 04:41:44;;;;;;;4.97;2.50;;;3.70;93.50;;;;;;5032812;28;20037;-80
2021/01/04 04:44:30;;;;;;;5.43;2.60;;;3.70;93.50;;;;;;5020479;28;20042;-80
2021/01/04 04:47:29;;;;;;;5.43;2.70;;;3.70;93.40;;;;;;4983322;28;20054;-80
2021/01/04 04:50:14;;;;;;;5.57;2.70;;;3.70;93.40;;;;;;5019508;28;20048;-80
2021/01/04 04:52:59;;;;;;;5.43;2.67;;;3.70;93.50;;;;;;5011514;28;20125;-80
2021/01/04 04:55:47;;;;;;;5.47;2.90;;;3.80;93.50;;;;;;4999374;28;20050;-80
2021/01/04 04:58:41;;;;;;;4.73;2.47;;;3.80;93.50;;;;;;5016572;28;20041;-81
2021/01/04 05:01:13;;;;;;;4.77;2.80;;;3.80;93.50;;;;;;5016530;28;20096;-80
2021/01/04 05:04:08;;;;;;;6.97;3.38;;;3.80;93.50;;;;;;5036210;28;20523;-81
2021/01/04 05:06:38;;;;;;;8.67;3.90;;;3.80;93.50;;;;;;5020193;28;20042;-80
2021/01/04 05:09:38;;;;;;;6.67;3.80;;;3.80;93.50;;;;;;5014679;28;20045;-80
2021/01/04 05:12:46;;;;;;;5.70;3.60;;;3.80;93.40;;;;;;5010812;28;20045;-81
2021/01/04 05:15:34;;;;;;;7.00;3.80;;;3.80;93.40;;;;;;5013552;28;20037;-80
2021/01/04 05:18:25;;;;;;;7.07;4.23;;;3.80;93.40;;;;;;5022522;28;20050;-81
2021/01/04 05:21:29;;;;;;;8.67;4.80;;;3.80;93.50;;;;;;5025685;28;20077;-80
2021/01/04 05:24:10;;;;;;;8.80;4.40;;;3.80;93.40;;;;;;5033086;28;20045;-80
2021/01/04 05:26:52;;;;;;;8.43;4.53;;;3.80;93.40;;;;;;5025913;28;20100;-80
2021/01/04 05:29:53;;;;;;;7.63;4.13;;;3.80;93.40;;;;;;5019776;28;20059;-80
2021/01/04 05:32:31;;;;;;;8.67;5.17;;;3.80;93.40;;;;;;5025469;28;20092;-80
2021/01/04 05:35:03;;;;;;;9.23;4.67;;;3.80;93.40;;;;;;5008271;28;20049;-80
2021/01/04 05:37:55;;;;;;;7.43;4.20;;;3.80;93.50;;;;;;5019899;28;20069;-80
2021/01/04 05:40:33;;;;;;;8.50;3.97;;;3.80;93.40;;;;;;5025099;28;20061;-80
2021/01/04 05:43:21;;;;;;;5.37;3.20;;;3.80;93.50;;;;;;5029346;28;20092;-80
2021/01/04 05:46:08;;;;;;;7.27;3.10;;;3.80;93.50;;;;;;5005146;28;20054;-80
2021/01/04 05:48:56;;;;;;;7.73;3.63;;;3.80;93.50;;;;;;5003857;28;20470;-80
2021/01/04 05:51:29;;;;;;;6.17;3.80;;;3.80;93.50;;;;;;5029910;28;20033;-79
2021/01/04 05:53:55;;;;;;;;;;;3.80;93.60;;;;;;5027430;28;20087;-80
2021/01/04 05:56:24;;;;;;;7.13;4.10;;;3.80;93.50;;;;;;5016507;28;20432;-80
2021/01/04 05:59:15;;;;;;;7.93;4.10;;;3.80;93.50;;;;;;5022855;28;20049;-79
2021/01/04 06:01:46;;;;;;;7.53;4.37;;;3.80;93.50;;;;;;5024112;28;20053;-79
2021/01/04 06:04:25;;;;;;;7.77;4.57;;;3.80;93.50;;;;;;5001610;28;20091;-80
2021/01/04 06:07:05;;;;;;;6.83;3.83;;;3.80;93.50;;;;;;5003385;28;20068;-80
2021/01/04 06:09:32;;;;;;;7.35;4.22;;;3.80;93.60;;;;;;5010982;28;20412;-80
2021/01/04 06:12:06;;;;;;;6.67;3.73;;;3.80;93.60;;;;;;5014186;28;20038;-80
2021/01/04 06:14:35;;;;;;;6.63;3.30;;;3.80;93.60;;;;;;5015194;28;20038;-80
2021/01/04 06:17:22;;;;;;;8.37;4.43;;;3.80;93.60;;;;;;5021107;28;20066;-79
2021/01/04 06:19:51;;;;;;;6.73;3.67;;;3.80;93.60;;;;;;5022327;28;20042;-80
2021/01/04 06:22:26;;;;;;;8.30;4.10;;;3.80;93.60;;;;;;5030199;28;20045;-80
2021/01/04 06:25:02;;;;;;;5.60;3.20;;;3.80;93.60;;;;;;5004507;28;20498;-79
2021/01/04 06:27:31;;;;;;;7.73;3.90;;;3.80;93.60;;;;;;5013919;28;20057;-80
2021/01/04 06:30:12;;;;;;;9.27;3.93;;;3.80;93.50;;;;;;5022545;28;20055;-81
2021/01/04 06:32:39;;;;;;;7.80;3.97;;;3.80;93.60;;;;;;5024169;28;20103;-80
2021/01/04 06:35:18;;;;;;;8.43;4.30;;;3.80;93.80;;;;;;5025851;28;20445;-80
2021/01/04 06:37:44;;;;;;;7.00;3.70;;;3.90;93.60;;;;;;5030361;28;20078;-80
2021/01/04 06:40:32;;;;;;;6.63;2.87;;;3.80;93.60;;;;;;5037375;28;20049;-80
2021/01/04 06:43:23;;;;;;;8.90;4.30;;;3.90;93.60;;;;;;5019096;28;20042;-80
2021/01/04 06:46:08;;;;;;;8.53;3.70;;;3.80;93.60;;;;;;5008878;28;20575;-80
2021/01/04 06:48:41;;;;;;;6.30;4.10;;;3.90;93.60;;;;;;5003033;28;20093;-80
2021/01/04 06:51:07;;;;;;;7.05;3.60;;;3.90;93.60;;;;;;5014446;28;20116;-80
2021/01/04 06:53:49;;;;;;;8.10;4.47;;;3.90;93.60;;;;;;5034533;28;20116;-80
2021/01/04 06:56:29;;;;;;;9.13;4.50;;;3.90;93.60;;;;;;5024218;28;20046;-80
2021/01/04 06:59:29;;;;;;;10.80;6.00;;;3.90;93.60;;;;;;5024691;28;20437;-80
2021/01/04 07:02:15;;;;;;;10.03;5.27;;;3.90;93.60;;;;;;5015904;28;20049;-80
2021/01/04 07:05:09;;;;;;;9.23;5.27;;;3.90;93.60;;;;;;5023137;28;20041;-80
2021/01/04 07:07:47;;;;;;;10.50;6.43;;;3.90;93.60;;;;;;5013090;28;20501;-80
2021/01/04 07:10:19;;;;;;;11.47;6.20;;;3.90;93.60;;;;;;5018022;28;20033;-80
2021/01/04 07:12:54;;;;;;;12.25;6.82;;;3.80;93.60;;;;;;5021434;28;20042;-80
2021/01/04 07:15:31;;;;;;;11.40;5.97;;;3.90;93.60;;;;;;5018178;28;20029;-80
2021/01/04 07:18:04;;;;;;;11.83;6.23;;;3.90;93.60;;;;;;5032634;28;20132;-80
2021/01/04 07:20:50;;;;;;;12.95;6.63;;;3.90;93.60;;;;;;5032544;28;20056;-80
2021/01/04 07:23:56;;;;;;;11.17;6.13;;;3.80;93.60;;;;;;5033720;28;20037;-80
2021/01/04 07:26:30;;;;;;;9.07;5.37;;;3.90;93.60;;;;;;5036735;28;20049;-79
2021/01/04 07:29:03;;;;;;;8.57;5.07;;;3.90;93.90;;;;;;5026597;28;20045;-81
2021/01/04 07:31:50;;;;;;;9.30;5.20;;;3.90;93.70;;;;;;5018077;28;20049;-80
2021/01/04 07:34:22;;;;;;;9.50;5.43;;;3.90;93.60;;;;;;4992241;28;20445;-81
2021/01/04 07:37:18;;;;;;;12.30;6.50;;;3.90;93.60;;;;;;5012120;28;20096;-80
2021/01/04 07:39:58;;;;;;;12.77;6.47;;;3.90;93.60;;;;;;5016767;28;20049;-80
2021/01/04 07:42:54;;;;;;;11.57;6.27;;;3.80;93.60;;;;;;5012996;28;20046;-80
2021/01/04 07:45:55;;;;;;;10.20;5.20;;;3.90;93.60;;;;;;5007904;28;20112;-80
2021/01/04 07:49:02;;;;;;;10.57;5.60;;;3.90;93.60;;;;;;4998827;28;20115;-80
2021/01/04 07:51:57;;;;;;;10.67;5.23;;;3.90;93.60;;;;;;5024194;28;20485;-80
2021/01/04 07:54:54;;;;;;;9.43;4.80;;;3.80;93.60;;;;;;5006224;28;20097;-80
2021/01/04 07:57:49;;;;;;;9.53;4.93;;;3.90;93.70;;;;;;5043618;28;20067;-79
2021/01/04 08:00:53;;;;;;;11.87;5.40;;;3.90;93.60;;;;;;4999946;28;20057;-79
2021/01/04 08:03:54;;;;;;;10.13;5.67;;;3.90;93.70;;;;;;5015128;28;20046;-79
2021/01/04 08:06:38;;;;;;;9.70;5.57;;;3.90;93.70;;;;;;5031693;28;20068;-81
2021/01/04 08:09:14;;;;;;;10.77;5.60;;;3.90;93.70;;;;;;5033133;28;20116;-80
2021/01/04 08:12:27;;;;;;;8.50;5.10;;;3.90;93.70;;;;;;5023024;28;20545;-80
2021/01/04 08:15:30;;;;;;;10.40;5.67;;;3.90;93.70;;;;;;4992577;28;20062;-81
2021/01/04 08:18:09;;;;;;;8.00;4.65;;;3.90;93.70;;;;;;4997194;28;20403;-80
2021/01/04 08:20:42;;;;;;;10.03;5.07;;;3.90;93.70;;;;;;5010638;28;20057;-80
2021/01/04 08:23:26;;;;;;;8.60;4.50;;;3.90;93.70;;;;;;5022655;28;20103;-80
2021/01/04 08:26:17;;;;;;;8.40;4.27;;;3.90;93.70;;;;;;5031766;28;20493;-80
2021/01/04 08:29:12;;;;;;;10.47;5.13;;;3.90;93.80;;;;;;5023093;28;20038;-75
2021/01/04 08:31:40;;;;;;;8.70;4.63;;;3.90;93.70;;;;;;5018010;28;20073;-75
2021/01/04 08:34:11;;;;;;;9.67;5.60;;;3.90;93.80;;;;;;4996228;28;20449;-75
2021/01/04 08:36:59;;;;;;;9.53;5.43;;;3.90;93.80;;;;;;5007018;28;20050;-74
2021/01/04 08:39:26;;;;;;;11.47;6.00;;;3.90;93.70;;;;;;5025092;28;20053;-74
2021/01/04 08:42:11;;;;;;;10.03;6.10;;;3.90;93.80;;;;;;4995146;28;20053;-73
2021/01/04 08:44:38;;;;;;;10.17;5.87;;;3.90;93.70;;;;;;5029302;28;20056;-73
2021/01/04 08:47:18;;;;;;;11.57;5.37;;;3.90;93.80;;;;;;5002002;28;20405;-76
2021/01/04 08:49:47;;;;;;;10.80;5.87;;;3.90;93.80;;;;;;5013840;28;20068;-74
2021/01/04 08:52:19;;;;;;;9.27;5.20;;;3.90;93.80;;;;;;5022684;28;20571;-73
2021/01/04 08:55:00;;;;;;;9.45;4.88;;;3.90;93.80;;;;;;5028322;28;20034;-74
2021/01/04 08:57:44;;;;;;;7.23;4.47;;;3.90;93.80;;;;;;5007332;28;20042;-74
2021/01/04 09:00:27;;;;;;;7.77;4.17;;;4.00;93.80;;;;;;5030585;28;20147;-73
2021/01/04 09:02:57;;;;;;;9.27;4.80;;;4.00;93.80;;;;;;5026055;28;20072;-73
2021/01/04 09:05:31;;;;;;;7.67;4.43;;;4.00;93.80;;;;;;5014311;28;20049;-73
2021/01/04 09:07:59;;;;;;;10.80;5.37;;;4.00;93.80;;;;;;5035082;28;20045;-73
2021/01/04 09:10:47;;;;;;;8.03;4.70;;;4.00;93.80;;;;;;5012592;28;20124;-74
2021/01/04 09:13:32;;;;;;;8.33;4.40;;;4.00;93.80;;;;;;5035210;28;20061;-74
2021/01/04 09:16:31;;;;;;;7.90;3.77;;;4.00;93.80;;;;;;5010452;28;20391;-75
2021/01/04 09:19:05;;;;;;;7.50;4.20;;;3.90;93.90;;;;;;5012664;28;20132;-74
2021/01/04 09:21:38;;;;;;;8.93;5.33;;;4.00;93.90;;;;;;5027781;28;20075;-73
2021/01/04 09:24:23;;;;;;;8.93;4.90;;;3.90;93.90;;;;;;5031315;28;20053;-73
2021/01/04 09:27:13;;;;;;;9.80;5.50;;;4.00;93.90;;;;;;5054332;28;20045;-73
2021/01/04 09:29:47;;;;;;;8.57;4.70;;;4.00;93.90;;;;;;5009470;28;20047;-73
2021/01/04 09:32:17;;;;;;;9.83;4.50;;;4.00;93.90;;;;;;5020234;28;20037;-73
2021/01/04 09:34:43;;;;;;;12.47;5.77;;;4.00;93.90;;;;;;5018151;28;20041;-74
2021/01/04 09:37:22;;;;;;;11.37;5.33;;;4.00;93.90;;;;;;5020277;28;20498;-73
2021/01/04 09:39:51;;;;;;;9.77;5.67;;;4.00;93.90;;;;;;5027308;28;20050;-74
2021/01/04 09:42:24;;;;;;;9.83;5.60;;;4.00;93.90;;;;;;5018397;28;20042;-73
2021/01/04 09:44:51;;;;;;;10.47;5.37;;;4.00;93.90;;;;;;5029709;28;20038;-73
2021/01/04 09:47:31;;;;;;;11.03;5.27;;;4.00;93.90;;;;;;5025222;28;20128;-73
2021/01/04 09:50:03;;;;;;;11.27;4.93;;;4.10;93.90;;;;;;5020146;28;20041;-79
2021/01/04 09:53:25;;;;;;;9.47;4.53;;;4.10;93.90;;;;;;5026462;28;20046;-79
2021/01/04 09:55:58;;;;;;;9.33;5.17;;;4.20;93.90;;;;;;4972990;28;20053;-79
2021/01/04 09:58:25;;;;;;;8.30;4.50;;;4.20;93.90;;;;;;5020635;28;20463;-79
2021/01/04 10:01:12;;;;;;;8.43;5.10;;;4.20;93.90;;;;;;5023941;28;20109;-80
2021/01/04 10:03:55;;;;;;;9.00;4.67;;;4.20;93.90;;;;;;5009697;28;20037;-79
2021/01/04 10:06:23;;;;;;;8.57;5.10;;;4.20;93.90;;;;;;5020391;28;20046;-80
2021/01/04 10:08:50;;;;;;;9.77;5.33;;;4.20;93.90;;;;;;5020681;28;20045;-79
2021/01/04 10:11:20;;;;;;;8.93;4.63;;;4.20;93.90;;;;;;5027644;28;20379;-74
2021/01/04 10:13:50;;;;;;;7.10;4.27;;;4.20;93.90;;;;;;5027908;28;20048;-74
2021/01/04 10:16:24;;;;;;;9.73;4.97;;;4.30;94.00;;;;;;5008682;28;20233;-73
2021/01/04 10:19:07;;;;;;;8.60;4.50;;;4.30;93.90;;;;;;5032444;28;20054;-73
2021/01/04 10:21:46;;;;;;;9.03;5.13;;;4.30;93.90;;;;;;5029148;28;20050;-73
2021/01/04 10:24:22;;;;;;;8.80;5.53;;;4.30;93.90;;;;;;5026326;28;20041;-73
2021/01/04 10:26:55;;;;;;;8.90;4.20;;;4.30;93.80;;;;;;5042103;28;20051;-74
2021/01/04 10:29:26;;;;;;;7.80;5.07;;;4.30;93.90;;;;;;5032429;28;20127;-73
2021/01/04 10:32:12;;;;;;;9.83;4.80;;;4.30;93.90;;;;;;5011550;28;20424;-73
2021/01/04 10:34:44;;;;;;;7.53;4.13;;;4.30;93.90;;;;;;5033567;28;20045;-73
2021/01/04 10:37:46;;;;;;;7.50;4.03;;;4.30;93.90;;;;;;5015980;28;20095;-73
2021/01/04 10:40:15;;;;;;;7.13;3.63;;;4.30;93.90;;;;;;5009062;28;20563;-74
2021/01/04 10:42:44;;;;;;;8.20;4.33;;;4.30;93.90;;;;;;5015760;28;20050;-74
2021/01/04 10:45:13;;;;;;;9.37;4.77;;;4.30;93.90;;;;;;5063321;28;20084;-74
2021/01/04 10:47:57;;;;;;;9.97;5.10;;;4.30;93.90;;;;;;5013067;28;20490;-74
2021/01/04 10:50:40;;;;;;;10.77;4.50;;;4.30;93.90;;;;;;5016661;28;20049;-75
2021/01/04 10:53:12;;;;;;;6.90;3.70;;;4.30;93.90;;;;;;5020867;28;20061;-74
2021/01/04 10:56:10;;;;;;;10.13;4.38;;;4.30;93.90;;;;;;5015847;28;20407;-74
2021/01/04 10:58:48;;;;;;;7.80;4.47;;;4.30;93.90;;;;;;5029405;28;20102;-74
2021/01/04 11:01:32;;;;;;;9.53;4.47;;;4.30;93.90;;;;;;5021434;28;20046;-74
2021/01/04 11:04:11;;;;;;;7.07;3.77;;;4.30;94.00;;;;;;5015593;28;20493;-73
2021/01/04 11:06:41;;;;;;;6.63;3.47;;;4.30;94.00;;;;;;5031487;28;20076;-74
2021/01/04 11:09:36;;;;;;;9.77;4.60;;;4.20;94.00;;;;;;5031425;28;20041;-73
2021/01/04 11:12:26;;;;;;;7.23;4.10;;;4.30;94.00;;;;;;5000023;28;20083;-73
2021/01/04 11:15:01;;;;;;;7.30;3.90;;;4.30;94.00;;;;;;5033100;28;20107;-74
2021/01/04 11:17:36;;;;;;;8.13;4.33;;;4.20;94.20;;;;;;5030706;28;20080;-74
2021/01/04 11:20:17;;;;;;;9.03;4.40;;;4.20;93.90;;;;;;5031368;28;20041;-74
2021/01/04 11:22:44;;;;;;;8.17;4.60;;;4.20;93.90;;;;;;5032476;28;20041;-74
2021/01/04 11:25:13;;;;;;;9.50;4.80;;;4.20;93.90;;;;;;5027905;28;20056;-74
2021/01/04 11:27:40;;;;;;;7.87;4.33;;;4.20;93.90;;;;;;5014854;28;20120;-73
2021/01/04 11:30:08;;;;;;;8.33;4.30;;;4.20;93.90;;;;;;5027392;28;20116;-74
2021/01/04 11:32:35;;;;;;;6.80;3.47;;;4.20;93.90;;;;;;5002862;28;20096;-74
2021/01/04 11:35:02;;;;;;;7.60;3.40;;;4.20;93.90;;;;;;5022770;28;20073;-75
2021/01/04 11:37:30;;;;;;;7.13;3.43;;;4.20;93.90;;;;;;5016074;28;20042;-75
2021/01/04 11:39:56;;;;;;;7.17;3.13;;;4.20;93.90;;;;;;5030667;28;20048;-74
2021/01/04 11:42:23;;;;;;;6.13;3.57;;;4.30;93.90;;;;;;5020435;28;20037;-74
2021/01/04 11:44:52;;;;;;;6.47;2.90;;;4.30;93.90;;;;;;5025749;28;20053;-75
2021/01/04 11:47:18;;;;;;;5.40;3.20;;;4.30;93.90;;;;;;5011366;28;20081;-74
2021/01/04 11:49:45;;;;;;;7.40;4.00;;;4.30;94.10;;;;;;5012485;28;20075;-74
2021/01/04 11:52:12;;;;;;;7.30;3.70;;;4.30;93.90;;;;;;4995513;28;20045;-74
2021/01/04 11:54:43;;;;;;;7.80;3.43;;;4.30;93.90;;;;;;4997495;28;20053;-74
2021/01/04 11:57:10;;;;;;;7.90;3.30;;;4.30;93.90;;;;;;5011073;28;20359;-74
2021/01/04 11:59:37;;;;;;;5.63;3.13;;;4.30;93.90;;;;;;5006117;28;20057;-74
2021/01/04 12:02:04;;;;;;;5.40;2.83;;;4.20;93.90;;;;;;5017484;28;20053;-73
2021/01/04 12:04:30;;;;;;;7.37;3.10;;;4.30;93.90;;;;;;5027742;28;20042;-73
2021/01/04 12:06:59;;;;;;;6.63;2.87;;;4.30;93.90;;;;;;4990028;28;20128;-74
2021/01/04 12:09:26;;;;;;;7.20;4.00;;;4.30;93.90;;;;;;5023758;28;20049;-73
2021/01/04 12:11:55;;;;;;;5.53;3.27;;;4.30;93.80;;;;;;4996858;28;20123;-73
2021/01/04 12:14:30;;;;;;;7.27;3.87;;;4.30;93.80;;;;;;5006914;28;20108;-73
2021/01/04 12:17:04;;;;;;;7.50;3.90;;;4.20;93.80;;;;;;5025220;28;20045;-74
2021/01/04 12:19:32;;;;;;;6.60;3.57;;;4.20;93.80;;;;;;5010632;28;20072;-73
2021/01/04 12:22:04;;;;;;;6.73;3.97;;;4.30;93.90;;;;;;5011982;28;20363;-78
2021/01/04 12:24:34;;;;;;;6.18;3.55;;;4.20;93.80;;;;;;5010283;28;20045;-81
2021/01/04 12:27:06;;;;;;;6.97;4.03;;;4.20;93.70;;;;;;5009755;28;20046;-78
2021/01/04 12:29:33;;;;;;;5.30;2.87;;;4.20;93.70;;;;;;5021963;28;20057;-75
2021/01/04 12:32:01;;;;;;;4.90;2.63;;;4.20;93.80;;;;;;5010154;28;20042;-74
2021/01/04 12:34:28;;;;;;;5.60;2.73;;;4.20;93.80;;;;;;5024647;28;20513;-74
2021/01/04 12:36:55;;;;;;;6.47;3.30;;;4.20;93.70;;;;;;4991152;28;20046;-75
2021/01/04 12:39:25;;;;;;;6.20;2.47;;;4.20;93.70;;;;;;5010310;28;20057;-74
2021/01/04 12:41:51;;;;;;;6.17;3.17;;;4.20;93.70;;;;;;4978048;28;20046;-74
2021/01/04 12:44:18;;;;;;;7.63;3.30;;;4.30;93.70;;;;;;4991239;28;20462;-74
2021/01/04 12:46:54;;;;;;;7.20;3.07;;;4.20;93.60;;;;;;5010198;28;20054;-73
2021/01/04 12:49:22;;;;;;;5.03;2.80;;;4.30;93.60;;;;;;5014008;28;20120;-74
2021/01/04 12:51:58;;;;;;;5.53;2.90;;;4.20;93.60;;;;;;5009989;28;20049;-74
2021/01/04 12:54:29;;;;;;;4.50;2.67;;;4.30;93.60;;;;;;5009653;28;20046;-73
2021/01/04 12:56:56;;;;;;;5.63;2.90;;;4.20;93.60;;;;;;4992755;28;20435;-74
2021/01/04 12:59:27;;;;;;;6.40;3.70;;;4.20;93.60;;;;;;5009874;28;20076;-74
2021/01/04 13:01:55;;;;;;;7.53;3.30;;;4.30;93.60;;;;;;4989918;28;20109;-74
2021/01/04 13:04:25;;;;;;;5.73;3.27;;;4.20;93.60;;;;;;5017803;28;20050;-73
2021/01/04 13:06:53;;;;;;;6.90;3.50;;;4.20;93.60;;;;;;5011313;28;20046;-73
2021/01/04 13:09:21;;;;;;;6.13;3.13;;;4.20;93.50;;;;;;5011183;28;20046;-74
2021/01/04 13:11:48;;;;;;;4.70;2.80;;;4.20;93.50;;;;;;5010040;28;20157;-74
2021/01/04 13:14:18;;;;;;;6.10;3.10;;;4.20;93.50;;;;;;5009840;28;20042;-74
2021/01/04 13:16:46;;;;;;;6.90;3.90;;;4.20;93.50;;;;;;5006328;28;20037;-74
2021/01/04 13:19:13;;;;;;;6.67;3.50;;;4.20;93.50;;;;;;5010789;28;20073;-76
2021/01/04 13:21:42;;;;;;;5.67;3.20;;;4.20;93.50;;;;;;5011139;28;20042;-75
2021/01/04 13:24:13;;;;;;;5.00;3.10;;;4.10;93.40;;;;;;4995873;28;20099;-75
2021/01/04 13:26:48;;;;;;;7.93;3.00;;;4.10;93.50;;;;;;5031187;28;20120;-75
2021/01/04 13:29:18;;;;;;;5.90;3.60;;;4.10;93.50;;;;;;5015323;28;20493;-75
2021/01/04 13:31:46;;;;;;;5.60;2.80;;;4.10;93.50;;;;;;5018797;28;20046;-75
2021/01/04 13:34:13;;;;;;;5.67;3.57;;;4.10;93.40;;;;;;5014801;28;20072;-75
2021/01/04 13:36:40;;;;;;;5.43;3.27;;;4.10;93.30;;;;;;5010250;28;20254;-74
2021/01/04 13:39:07;;;;;;;5.60;2.83;;;4.00;93.30;;;;;;4980311;28;20042;-74
2021/01/04 13:41:35;;;;;;;5.63;3.20;;;4.10;93.40;;;;;;5032020;28;20551;-73
2021/01/04 13:44:01;;;;;;;6.93;3.53;;;4.00;93.30;;;;;;5025183;28;20072;-74
2021/01/04 13:46:34;;;;;;;5.90;3.30;;;4.00;93.30;;;;;;5032008;28;20061;-74
2021/01/04 13:49:00;;;;;;;5.40;2.50;;;4.00;93.30;;;;;;5016605;28;20980;-73
2021/01/04 13:51:27;;;;;;;4.93;2.60;;;4.00;93.40;;;;;;5022027;28;20311;-74